sensor_id;sensor_type;location;lat;lon;timestamp;pressure;altitude;pressure_sealevel;temperature;humidity
29417;BME280;28421;51.030;4.006;2022-11-15T06:04:27;100705.34;;;10.70;75.66
29417;BME280;28421;51.030;4.006;2022-11-15T06:07:11;100708.09;;;10.62;75.57
29417;BME280;28421;51.030;4.006;2022-11-15T06:09:55;100708.09;;;10.62;75.86
29417;BME280;28421;51.030;4.006;2022-11-15T06:12:39;100703.69;;;10.61;76.06
29417;BME280;28421;51.030;4.006;2022-11-15T06:15:23;100709.41;;;10.66;75.88
29417;BME280;28421;51.030;4.006;2022-11-15T06:18:07;100708.03;;;10.70;75.41
29417;BME280;28421;51.030;4.006;2022-11-15T06:20:51;100708.19;;;10.68;75.39
29417;BME280;28421;51.030;4.006;2022-11-15T06:23:35;100700.03;;;10.62;75.46
29417;BME280;28421;51.030;4.006;2022-11-15T06:26:19;100702.00;;;10.68;75.83
29417;BME280;28421;51.030;4.006;2022-11-15T06:29:04;100702.88;;;10.60;75.38
29417;BME280;28421;51.030;4.006;2022-11-15T06:31:48;100703.88;;;10.59;75.00
29417;BME280;28421;51.030;4.006;2022-11-15T06:34:32;100706.91;;;10.56;75.13
29417;BME280;28421;51.030;4.006;2022-11-15T06:37:16;100696.56;;;10.45;75.07
29417;BME280;28421;51.030;4.006;2022-11-15T06:40:00;100698.06;;;10.48;74.96
29417;BME280;28421;51.030;4.006;2022-11-15T06:42:44;100693.75;;;10.38;75.07
29417;BME280;28421;51.030;4.006;2022-11-15T06:45:28;100695.28;;;10.33;74.92
29417;BME280;28421;51.030;4.006;2022-11-15T06:48:12;100703.31;;;10.41;74.80
29417;BME280;28421;51.030;4.006;2022-11-15T06:50:58;100702.00;;;10.29;75.15
29417;BME280;28421;51.030;4.006;2022-11-15T06:53:42;100703.50;;;10.31;75.01
29417;BME280;28421;51.030;4.006;2022-11-15T06:56:26;100705.88;;;10.26;74.95
29417;BME280;28421;51.030;4.006;2022-11-15T06:59:10;100699.78;;;10.24;74.78
29417;BME280;28421;51.030;4.006;2022-11-15T07:01:54;100702.84;;;10.21;75.30
29417;BME280;28421;51.030;4.006;2022-11-15T07:04:38;100705.88;;;10.18;75.28
29417;BME280;28421;51.030;4.006;2022-11-15T07:07:22;100688.56;;;10.20;75.30
29417;BME280;28421;51.030;4.006;2022-11-15T07:10:07;100691.59;;;10.26;75.40
29417;BME280;28421;51.030;4.006;2022-11-15T07:12:51;100702.84;;;10.29;75.07
29417;BME280;28421;51.030;4.006;2022-11-15T07:15:35;100703.72;;;10.13;75.60
29417;BME280;28421;51.030;4.006;2022-11-15T07:18:19;100708.75;;;10.16;75.58
29417;BME280;28421;51.030;4.006;2022-11-15T07:21:05;100703.84;;;10.20;75.71
29417;BME280;28421;51.030;4.006;2022-11-15T07:23:49;100696.16;;;10.17;75.72
29417;BME280;28421;51.030;4.006;2022-11-15T07:26:33;100699.66;;;10.26;75.62
29417;BME280;28421;51.030;4.006;2022-11-15T07:29:17;100703.84;;;10.28;75.34
29417;BME280;28421;51.030;4.006;2022-11-15T07:32:01;100704.50;;;10.22;75.50
29417;BME280;28421;51.030;4.006;2022-11-15T07:34:45;100700.69;;;10.25;75.84
29417;BME280;28421;51.030;4.006;2022-11-15T07:37:30;100698.81;;;10.33;75.52
29417;BME280;28421;51.030;4.006;2022-11-15T07:40:14;100694.25;;;10.34;75.50
29417;BME280;28421;51.030;4.006;2022-11-15T07:43:08;100684.88;;;10.30;75.81
29417;BME280;28421;51.030;4.006;2022-11-15T07:45:52;100674.25;;;10.36;75.52
29417;BME280;28421;51.030;4.006;2022-11-15T07:48:37;100672.88;;;10.40;75.75
29417;BME280;28421;51.030;4.006;2022-11-15T07:51:23;100658.31;;;10.35;75.52
29417;BME280;28421;51.030;4.006;2022-11-15T07:54:07;100672.84;;;10.49;75.42
29417;BME280;28421;51.030;4.006;2022-11-15T07:56:51;100661.25;;;10.48;75.97
29417;BME280;28421;51.030;4.006;2022-11-15T07:59:35;100655.34;;;10.53;75.38
29417;BME280;28421;51.030;4.006;2022-11-15T08:02:19;100653.56;;;10.45;75.35
29417;BME280;28421;51.030;4.006;2022-11-15T08:05:03;100647.13;;;10.54;75.23
29417;BME280;28421;51.030;4.006;2022-11-15T08:07:47;100638.03;;;10.55;74.77
29417;BME280;28421;51.030;4.006;2022-11-15T08:10:32;100641.25;;;10.51;75.01
29417;BME280;28421;51.030;4.006;2022-11-15T08:13:16;100636.00;;;10.57;74.75
29417;BME280;28421;51.030;4.006;2022-11-15T08:16:01;100631.88;;;10.69;74.03
29417;BME280;28421;51.030;4.006;2022-11-15T08:18:46;100628.50;;;10.76;73.58
29417;BME280;28421;51.030;4.006;2022-11-15T08:21:30;100626.69;;;10.68;73.70
29417;BME280;28421;51.030;4.006;2022-11-15T08:24:14;100630.06;;;10.70;73.33
29417;BME280;28421;51.030;4.006;2022-11-15T08:26:58;100629.94;;;10.63;73.42
29417;BME280;28421;51.030;4.006;2022-11-15T08:29:43;100634.81;;;10.60;73.47
29417;BME280;28421;51.030;4.006;2022-11-15T08:32:27;100641.66;;;10.70;73.13
29417;BME280;28421;51.030;4.006;2022-11-15T08:35:11;100643.56;;;10.85;72.80
29417;BME280;28421;51.030;4.006;2022-11-15T08:37:55;100646.72;;;10.88;72.34
29417;BME280;28421;51.030;4.006;2022-11-15T08:40:39;100646.19;;;10.93;72.67
29417;BME280;28421;51.030;4.006;2022-11-15T08:43:22;100631.31;;;11.05;72.18
29417;BME280;28421;51.030;4.006;2022-11-15T08:46:10;100628.00;;;11.18;72.13
29417;BME280;28421;51.030;4.006;2022-11-15T08:48:55;100629.78;;;11.26;71.32
29417;BME280;28421;51.030;4.006;2022-11-15T08:51:39;100635.28;;;11.32;71.21
29417;BME280;28421;51.030;4.006;2022-11-15T08:54:23;100629.28;;;11.45;71.00
29417;BME280;28421;51.030;4.006;2022-11-15T08:57:07;100618.50;;;11.45;70.44
29417;BME280;28421;51.030;4.006;2022-11-15T08:59:52;100626.72;;;11.66;69.79
29417;BME280;28421;51.030;4.006;2022-11-15T09:02:40;100631.53;;;11.71;69.82
29417;BME280;28421;51.030;4.006;2022-11-15T09:05:25;100623.78;;;11.91;69.07
29417;BME280;28421;51.030;4.006;2022-11-15T09:08:08;100623.28;;;12.17;69.04
29417;BME280;28421;51.030;4.006;2022-11-15T09:10:52;100613.22;;;12.26;68.41
29417;BME280;28421;51.030;4.006;2022-11-15T09:13:36;100617.22;;;12.30;67.71
29417;BME280;28421;51.030;4.006;2022-11-15T09:16:21;100603.50;;;12.46;67.05
29417;BME280;28421;51.030;4.006;2022-11-15T09:19:05;100602.25;;;12.63;67.49
29417;BME280;28421;51.030;4.006;2022-11-15T09:21:49;100600.97;;;12.81;67.28
29417;BME280;28421;51.030;4.006;2022-11-15T09:24:34;100592.63;;;12.76;67.03
29417;BME280;28421;51.030;4.006;2022-11-15T09:27:18;100606.31;;;12.96;66.44
29417;BME280;28421;51.030;4.006;2022-11-15T09:30:03;100594.09;;;12.78;65.86
29417;BME280;28421;51.030;4.006;2022-11-15T09:32:47;100580.06;;;12.47;65.88
29417;BME280;28421;51.030;4.006;2022-11-15T09:35:31;100577.47;;;12.75;66.23
29417;BME280;28421;51.030;4.006;2022-11-15T09:38:15;100578.09;;;12.77;65.40
29417;BME280;28421;51.030;4.006;2022-11-15T09:41:34;100579.13;;;12.76;65.49
29417;BME280;28421;51.030;4.006;2022-11-15T09:44:42;100576.09;;;12.64;65.13
29417;BME280;28421;51.030;4.006;2022-11-15T09:50:48;100574.63;;;12.83;65.57
29417;BME280;28421;51.030;4.006;2022-11-15T09:53:38;100559.75;;;12.93;64.98
29417;BME280;28421;51.030;4.006;2022-11-15T09:56:16;100553.69;;;13.06;64.16
29417;BME280;28421;51.030;4.006;2022-11-15T10:01:22;100545.16;;;13.09;63.81
29417;BME280;28421;51.030;4.006;2022-11-15T10:03:56;100550.03;;;13.21;63.45
29417;BME280;28421;51.030;4.006;2022-11-15T10:06:25;100532.09;;;13.13;63.55
29417;BME280;28421;51.030;4.006;2022-11-15T10:08:54;100531.63;;;13.31;62.82
29417;BME280;28421;51.030;4.006;2022-11-15T10:11:26;100530.06;;;13.43;62.53
29417;BME280;28421;51.030;4.006;2022-11-15T10:13:56;100525.06;;;13.40;62.22
29417;BME280;28421;51.030;4.006;2022-11-15T10:17:06;100512.75;;;13.65;62.02
29417;BME280;28421;51.030;4.006;2022-11-15T10:24:50;100509.44;;;13.70;62.23
29417;BME280;28421;51.030;4.006;2022-11-15T10:27:18;100507.53;;;13.64;62.08
29417;BME280;28421;51.030;4.006;2022-11-15T10:29:46;100502.28;;;13.56;62.23
29417;BME280;28421;51.030;4.006;2022-11-15T10:32:13;100498.75;;;13.55;61.63
29417;BME280;28421;51.030;4.006;2022-11-15T10:34:39;100497.47;;;13.45;61.60
29417;BME280;28421;51.030;4.006;2022-11-15T10:37:04;100500.50;;;13.70;62.00
29417;BME280;28421;51.030;4.006;2022-11-15T10:39:30;100492.75;;;13.60;61.76
29417;BME280;28421;51.030;4.006;2022-11-15T10:41:56;100483.81;;;13.59;61.82
29417;BME280;28421;51.030;4.006;2022-11-15T10:49:24;100468.22;;;13.55;61.96
29417;BME280;28421;51.030;4.006;2022-11-15T10:54:41;100453.25;;;13.59;61.94
29417;BME280;28421;51.030;4.006;2022-11-15T10:57:12;100442.31;;;13.74;61.58
29417;BME280;28421;51.030;4.006;2022-11-15T10:59:43;100434.22;;;13.80;61.21
29417;BME280;28421;51.030;4.006;2022-11-15T11:02:27;100432.41;;;13.94;60.99
29417;BME280;28421;51.030;4.006;2022-11-15T11:04:53;100417.00;;;14.01;60.91
29417;BME280;28421;51.030;4.006;2022-11-15T11:07:30;100422.84;;;14.05;60.08
29417;BME280;28421;51.030;4.006;2022-11-15T11:10:39;100419.94;;;14.00;60.78
29417;BME280;28421;51.030;4.006;2022-11-15T11:12:45;100408.28;;;14.06;60.13
29417;BME280;28421;51.030;4.006;2022-11-15T11:15:15;100414.56;;;14.06;59.65
29417;BME280;28421;51.030;4.006;2022-11-15T11:17:57;100404.13;;;14.10;59.61
29417;BME280;28421;51.030;4.006;2022-11-15T11:20:41;100393.13;;;14.11;59.76
29417;BME280;28421;51.030;4.006;2022-11-15T11:29:33;100386.69;;;14.26;59.67
29417;BME280;28421;51.030;4.006;2022-11-15T11:35:19;100377.75;;;14.25;59.26
29417;BME280;28421;51.030;4.006;2022-11-15T11:37:51;100379.03;;;14.56;59.39
29417;BME280;28421;51.030;4.006;2022-11-15T11:43:08;100363.22;;;14.53;58.05
29417;BME280;28421;51.030;4.006;2022-11-15T11:48:46;100360.06;;;14.69;58.26
29417;BME280;28421;51.030;4.006;2022-11-15T11:51:18;100350.28;;;14.41;58.10
29417;BME280;28421;51.030;4.006;2022-11-15T11:54:01;100341.94;;;14.43;58.13
29417;BME280;28421;51.030;4.006;2022-11-15T11:56:31;100338.03;;;14.52;58.41
29417;BME280;28421;51.030;4.006;2022-11-15T11:59:23;100330.34;;;14.56;58.48
29417;BME280;28421;51.030;4.006;2022-11-15T12:01:50;100328.03;;;14.53;58.81
29417;BME280;28421;51.030;4.006;2022-11-15T12:04:25;100327.59;;;14.62;58.01
29417;BME280;28421;51.030;4.006;2022-11-15T12:09:38;100319.28;;;14.51;58.52
29417;BME280;28421;51.030;4.006;2022-11-15T12:14:45;100306.81;;;14.36;58.72
29417;BME280;28421;51.030;4.006;2022-11-15T12:17:14;100295.34;;;14.48;59.27
29417;BME280;28421;51.030;4.006;2022-11-15T12:19:41;100294.72;;;14.59;59.00
29417;BME280;28421;51.030;4.006;2022-11-15T12:27:36;100287.25;;;14.41;59.66
29417;BME280;28421;51.030;4.006;2022-11-15T12:30:10;100272.69;;;14.35;59.75
29417;BME280;28421;51.030;4.006;2022-11-15T12:32:49;100256.88;;;14.26;59.85
29417;BME280;28421;51.030;4.006;2022-11-15T12:35:38;100256.09;;;14.18;60.19
29417;BME280;28421;51.030;4.006;2022-11-15T12:38:09;100255.44;;;14.23;60.06
29417;BME280;28421;51.030;4.006;2022-11-15T12:43:43;100236.25;;;14.45;60.22
29417;BME280;28421;51.030;4.006;2022-11-15T12:59:53;100207.72;;;14.62;59.67
29417;BME280;28421;51.030;4.006;2022-11-15T13:02:43;100187.13;;;14.61;59.71
29417;BME280;28421;51.030;4.006;2022-11-15T13:17:51;100181.72;;;14.61;60.37
29417;BME280;28421;51.030;4.006;2022-11-15T13:20:21;100173.63;;;14.54;60.49
29417;BME280;28421;51.030;4.006;2022-11-15T13:28:21;100155.72;;;14.60;60.66
29417;BME280;28421;51.030;4.006;2022-11-15T13:33:16;100154.50;;;14.49;60.91
29417;BME280;28421;51.030;4.006;2022-11-15T13:35:50;100149.69;;;14.51;60.91
29417;BME280;28421;51.030;4.006;2022-11-15T13:40:51;100136.59;;;14.48;60.90
29417;BME280;28421;51.030;4.006;2022-11-15T13:48:32;100135.72;;;14.61;61.04
29417;BME280;28421;51.030;4.006;2022-11-15T13:51:00;100128.91;;;14.52;61.86
29417;BME280;28421;51.030;4.006;2022-11-15T13:53:27;100120.56;;;14.53;62.20
29417;BME280;28421;51.030;4.006;2022-11-15T13:55:55;100118.28;;;14.50;62.51
29417;BME280;28421;51.030;4.006;2022-11-15T13:58:22;100121.94;;;14.69;61.91
29417;BME280;28421;51.030;4.006;2022-11-15T14:00:47;100106.00;;;14.54;62.11
29417;BME280;28421;51.030;4.006;2022-11-15T14:03:28;100103.28;;;14.54;62.12
29417;BME280;28421;51.030;4.006;2022-11-15T14:06:14;100107.22;;;14.58;62.42
29417;BME280;28421;51.030;4.006;2022-11-15T14:11:34;100095.22;;;14.41;62.50
29417;BME280;28421;51.030;4.006;2022-11-15T14:16:42;100092.16;;;14.31;63.60
29417;BME280;28421;51.030;4.006;2022-11-15T14:22:14;100092.56;;;14.28;64.03
29417;BME280;28421;51.030;4.006;2022-11-15T14:24:42;100092.88;;;14.06;64.95
29417;BME280;28421;51.030;4.006;2022-11-15T14:27:19;100097.19;;;14.14;65.19
29417;BME280;28421;51.030;4.006;2022-11-15T14:29:46;100090.16;;;14.06;65.82
29417;BME280;28421;51.030;4.006;2022-11-15T14:34:45;100089.13;;;14.01;66.59
29417;BME280;28421;51.030;4.006;2022-11-15T14:39:52;100081.28;;;13.86;67.19
29417;BME280;28421;51.030;4.006;2022-11-15T14:42:19;100086.28;;;13.82;67.45
29417;BME280;28421;51.030;4.006;2022-11-15T14:44:44;100087.28;;;13.95;67.37
29417;BME280;28421;51.030;4.006;2022-11-15T14:47:10;100069.44;;;13.87;67.25
29417;BME280;28421;51.030;4.006;2022-11-15T14:49:35;100079.59;;;13.85;67.89
29417;BME280;28421;51.030;4.006;2022-11-15T14:52:01;100071.72;;;13.77;68.32
29417;BME280;28421;51.030;4.006;2022-11-15T14:54:26;100064.03;;;13.87;67.85
29417;BME280;28421;51.030;4.006;2022-11-15T14:56:52;100066.56;;;13.75;68.43
29417;BME280;28421;51.030;4.006;2022-11-15T14:59:17;100070.25;;;13.81;68.68
29417;BME280;28421;51.030;4.006;2022-11-15T15:01:42;100065.53;;;13.70;69.30
29417;BME280;28421;51.030;4.006;2022-11-15T15:04:09;100058.25;;;13.63;69.85
29417;BME280;28421;51.030;4.006;2022-11-15T15:06:35;100049.38;;;13.43;70.44
29417;BME280;28421;51.030;4.006;2022-11-15T15:09:00;100039.56;;;13.62;70.17
29417;BME280;28421;51.030;4.006;2022-11-15T15:11:30;100049.75;;;13.73;70.09
29417;BME280;28421;51.030;4.006;2022-11-15T15:13:56;100044.97;;;13.62;70.45
29417;BME280;28421;51.030;4.006;2022-11-15T15:16:24;100040.41;;;13.62;70.65
29417;BME280;28421;51.030;4.006;2022-11-15T15:18:50;100039.16;;;13.58;70.95
29417;BME280;28421;51.030;4.006;2022-11-15T15:21:23;100037.09;;;13.60;70.89
29417;BME280;28421;51.030;4.006;2022-11-15T15:23:49;100029.00;;;13.47;71.68
29417;BME280;28421;51.030;4.006;2022-11-15T15:26:15;100033.16;;;13.43;71.91
29417;BME280;28421;51.030;4.006;2022-11-15T15:28:41;100024.88;;;13.45;71.87
29417;BME280;28421;51.030;4.006;2022-11-15T15:31:08;100010.13;;;13.40;72.15
29417;BME280;28421;51.030;4.006;2022-11-15T15:33:33;100013.03;;;13.46;71.59
29417;BME280;28421;51.030;4.006;2022-11-15T15:35:59;100011.41;;;13.31;72.56
29417;BME280;28421;51.030;4.006;2022-11-15T15:38:24;100004.31;;;13.17;73.31
29417;BME280;28421;51.030;4.006;2022-11-15T15:40:50;100010.53;;;13.31;73.15
29417;BME280;28421;51.030;4.006;2022-11-15T15:43:15;100010.53;;;13.31;73.35
29417;BME280;28421;51.030;4.006;2022-11-15T15:45:41;100008.06;;;13.29;73.28
29417;BME280;28421;51.030;4.006;2022-11-15T15:48:16;100015.94;;;13.44;73.00
29417;BME280;28421;51.030;4.006;2022-11-15T15:50:42;100008.03;;;13.49;72.85
29417;BME280;28421;51.030;4.006;2022-11-15T15:53:09;99998.72;;;13.32;73.34
29417;BME280;28421;51.030;4.006;2022-11-15T15:55:36;100005.97;;;13.38;73.33
29417;BME280;28421;51.030;4.006;2022-11-15T15:58:02;100009.91;;;13.49;73.01
29417;BME280;28421;51.030;4.006;2022-11-15T16:00:28;99999.16;;;13.29;74.02
29417;BME280;28421;51.030;4.006;2022-11-15T16:02:54;99997.50;;;13.28;74.35
29417;BME280;28421;51.030;4.006;2022-11-15T16:05:19;100001.44;;;13.25;74.67
29417;BME280;28421;51.030;4.006;2022-11-15T16:07:46;99996.03;;;13.25;74.88
29417;BME280;28421;51.030;4.006;2022-11-15T16:10:29;99981.69;;;13.31;74.70
29417;BME280;28421;51.030;4.006;2022-11-15T16:12:56;99969.66;;;13.27;74.76
29417;BME280;28421;51.030;4.006;2022-11-15T16:15:25;99986.06;;;13.32;74.79
29417;BME280;28421;51.030;4.006;2022-11-15T16:17:56;99998.31;;;13.28;74.98
29417;BME280;28421;51.030;4.006;2022-11-15T16:20:42;99985.66;;;13.29;75.65
29417;BME280;28421;51.030;4.006;2022-11-15T16:23:15;99987.28;;;13.30;75.37
29417;BME280;28421;51.030;4.006;2022-11-15T16:28:26;99986.63;;;13.48;74.70
29417;BME280;28421;51.030;4.006;2022-11-15T16:31:05;99986.44;;;13.42;75.21
29417;BME280;28421;51.030;4.006;2022-11-15T16:33:31;99981.94;;;13.23;75.66
29417;BME280;28421;51.030;4.006;2022-11-15T16:35:56;99977.31;;;13.30;75.53
29417;BME280;28421;51.030;4.006;2022-11-15T16:38:22;99985.19;;;13.38;75.60
29417;BME280;28421;51.030;4.006;2022-11-15T16:40:47;99977.72;;;13.34;75.64
29417;BME280;28421;51.030;4.006;2022-11-15T16:43:13;99975.66;;;13.36;75.59
29417;BME280;28421;51.030;4.006;2022-11-15T16:45:38;99983.13;;;13.34;75.64
29417;BME280;28421;51.030;4.006;2022-11-15T16:48:04;99976.69;;;13.48;75.53
29417;BME280;28421;51.030;4.006;2022-11-15T16:50:32;99983.97;;;13.41;75.52
29417;BME280;28421;51.030;4.006;2022-11-15T16:52:59;99978.31;;;13.49;75.42
29417;BME280;28421;51.030;4.006;2022-11-15T16:55:27;99974.56;;;13.50;75.21
29417;BME280;28421;51.030;4.006;2022-11-15T16:57:54;99974.78;;;13.49;75.79
29417;BME280;28421;51.030;4.006;2022-11-15T17:00:20;99970.03;;;13.44;75.66
29417;BME280;28421;51.030;4.006;2022-11-15T17:02:47;99970.19;;;13.56;75.24
29417;BME280;28421;51.030;4.006;2022-11-15T17:05:15;99970.22;;;13.49;75.71
29417;BME280;28421;51.030;4.006;2022-11-15T17:07:41;99969.59;;;13.54;75.42
29417;BME280;28421;51.030;4.006;2022-11-15T17:10:08;99972.69;;;13.57;75.16
29417;BME280;28421;51.030;4.006;2022-11-15T17:12:35;99970.81;;;13.64;75.16
29417;BME280;28421;51.030;4.006;2022-11-15T17:15:01;99962.69;;;13.64;74.99
29417;BME280;28421;51.030;4.006;2022-11-15T17:17:26;99964.41;;;13.52;75.36
29417;BME280;28421;51.030;4.006;2022-11-15T17:19:52;99967.28;;;13.57;75.58
29417;BME280;28421;51.030;4.006;2022-11-15T17:22:21;99972.88;;;13.56;75.62
29417;BME280;28421;51.030;4.006;2022-11-15T17:24:46;99964.78;;;13.56;75.67
29417;BME280;28421;51.030;4.006;2022-11-15T17:27:12;99965.44;;;13.51;75.76
29417;BME280;28421;51.030;4.006;2022-11-15T17:29:37;99960.25;;;13.50;76.03
29417;BME280;28421;51.030;4.006;2022-11-15T17:32:03;99960.22;;;13.56;75.32
29417;BME280;28421;51.030;4.006;2022-11-15T17:34:28;99955.25;;;13.53;75.98
29417;BME280;28421;51.030;4.006;2022-11-15T17:36:53;99965.19;;;13.59;75.89
29417;BME280;28421;51.030;4.006;2022-11-15T17:39:19;99958.53;;;13.62;75.92
29417;BME280;28421;51.030;4.006;2022-11-15T17:41:46;99960.84;;;13.58;75.91
29417;BME280;28421;51.030;4.006;2022-11-15T17:44:12;99961.47;;;13.60;76.10
29417;BME280;28421;51.030;4.006;2022-11-15T17:46:37;99949.63;;;13.61;75.89
29417;BME280;28421;51.030;4.006;2022-11-15T17:49:05;99942.09;;;13.63;75.82
29417;BME280;28421;51.030;4.006;2022-11-15T17:51:30;99940.09;;;13.52;76.08
29417;BME280;28421;51.030;4.006;2022-11-15T17:53:55;99943.38;;;13.61;76.23
29417;BME280;28421;51.030;4.006;2022-11-15T17:56:22;99954.38;;;13.66;76.28
29417;BME280;28421;51.030;4.006;2022-11-15T17:58:56;99944.22;;;13.61;76.15
29417;BME280;28421;51.030;4.006;2022-11-15T18:01:30;99942.09;;;13.63;76.11
29417;BME280;28421;51.030;4.006;2022-11-15T18:03:57;99937.59;;;13.51;76.87
29417;BME280;28421;51.030;4.006;2022-11-15T18:06:25;99928.84;;;13.62;76.71
29417;BME280;28421;51.030;4.006;2022-11-15T18:08:52;99931.94;;;13.65;76.46
29417;BME280;28421;51.030;4.006;2022-11-15T18:11:22;99928.28;;;13.85;75.70
29417;BME280;28421;51.030;4.006;2022-11-15T18:13:51;99929.41;;;13.77;76.11
29417;BME280;28421;51.030;4.006;2022-11-15T18:16:19;99920.25;;;13.72;76.80
29417;BME280;28421;51.030;4.006;2022-11-15T18:18:45;99919.44;;;13.71;76.45
29417;BME280;28421;51.030;4.006;2022-11-15T18:21:16;99929.59;;;13.76;76.32
29417;BME280;28421;51.030;4.006;2022-11-15T18:23:43;99923.34;;;13.82;75.93
29417;BME280;28421;51.030;4.006;2022-11-15T18:26:10;99924.16;;;13.82;76.03
29417;BME280;28421;51.030;4.006;2022-11-15T18:28:40;99935.13;;;13.94;75.70
29417;BME280;28421;51.030;4.006;2022-11-15T18:31:20;99923.25;;;13.95;75.49
29417;BME280;28421;51.030;4.006;2022-11-15T18:33:46;99918.91;;;13.94;75.47
29417;BME280;28421;51.030;4.006;2022-11-15T18:36:15;99918.19;;;14.05;75.29
29417;BME280;28421;51.030;4.006;2022-11-15T18:38:41;99916.81;;;13.96;75.05
29417;BME280;28421;51.030;4.006;2022-11-15T18:41:11;99911.56;;;14.01;75.10
29417;BME280;28421;51.030;4.006;2022-11-15T18:43:38;99909.34;;;13.91;75.26
29417;BME280;28421;51.030;4.006;2022-11-15T18:46:14;99898.13;;;13.88;75.29
29417;BME280;28421;51.030;4.006;2022-11-15T18:48:41;99884.63;;;13.88;74.96
29417;BME280;28421;51.030;4.006;2022-11-15T18:51:10;99908.81;;;14.14;74.54
29417;BME280;28421;51.030;4.006;2022-11-15T18:53:36;99897.53;;;14.17;73.94
29417;BME280;28421;51.030;4.006;2022-11-15T18:56:07;99899.91;;;14.07;74.46
29417;BME280;28421;51.030;4.006;2022-11-15T18:58:36;99897.94;;;14.21;73.82
29417;BME280;28421;51.030;4.006;2022-11-15T19:03:40;99895.28;;;14.14;74.01
29417;BME280;28421;51.030;4.006;2022-11-15T19:06:11;99903.13;;;14.23;73.87
29417;BME280;28421;51.030;4.006;2022-11-15T19:08:38;99904.63;;;14.18;74.18
29417;BME280;28421;51.030;4.006;2022-11-15T19:11:11;99893.00;;;14.11;74.25
29417;BME280;28421;51.030;4.006;2022-11-15T19:13:37;99886.38;;;14.07;74.57
29417;BME280;28421;51.030;4.006;2022-11-15T19:16:04;99884.28;;;14.09;74.52
29417;BME280;28421;51.030;4.006;2022-11-15T19:18:31;99877.13;;;14.22;74.18
29417;BME280;28421;51.030;4.006;2022-11-15T19:21:04;99882.78;;;14.13;74.37
29417;BME280;28421;51.030;4.006;2022-11-15T19:23:34;99881.41;;;14.04;74.35
29417;BME280;28421;51.030;4.006;2022-11-15T19:26:01;99874.34;;;14.03;75.05
29417;BME280;28421;51.030;4.006;2022-11-15T19:28:27;99881.00;;;14.01;74.60
29417;BME280;28421;51.030;4.006;2022-11-15T19:31:14;99869.13;;;14.08;74.50
29417;BME280;28421;51.030;4.006;2022-11-15T19:33:41;99876.78;;;14.11;74.53
29417;BME280;28421;51.030;4.006;2022-11-15T19:36:10;99865.34;;;14.09;74.72
29417;BME280;28421;51.030;4.006;2022-11-15T19:38:37;99870.50;;;14.17;74.28
29417;BME280;28421;51.030;4.006;2022-11-15T19:41:05;99860.03;;;14.28;73.77
29417;BME280;28421;51.030;4.006;2022-11-15T19:43:31;99852.66;;;14.10;74.24
29417;BME280;28421;51.030;4.006;2022-11-15T19:45:58;99868.16;;;14.28;73.84
29417;BME280;28421;51.030;4.006;2022-11-15T19:48:24;99868.69;;;14.36;73.37
29417;BME280;28421;51.030;4.006;2022-11-15T19:50:50;99855.09;;;14.18;73.94
29417;BME280;28421;51.030;4.006;2022-11-15T19:53:16;99859.88;;;14.23;74.13
29417;BME280;28421;51.030;4.006;2022-11-15T19:55:52;99851.94;;;14.28;73.82
29417;BME280;28421;51.030;4.006;2022-11-15T19:58:17;99850.91;;;14.22;73.93
29417;BME280;28421;51.030;4.006;2022-11-15T20:00:43;99850.03;;;14.28;73.93
29417;BME280;28421;51.030;4.006;2022-11-15T20:03:08;99853.69;;;14.40;73.63
29417;BME280;28421;51.030;4.006;2022-11-15T20:05:33;99846.97;;;14.43;73.13
29417;BME280;28421;51.030;4.006;2022-11-15T20:07:59;99850.81;;;14.35;73.06
29417;BME280;28421;51.030;4.006;2022-11-15T20:10:24;99848.41;;;14.27;73.74
29417;BME280;28421;51.030;4.006;2022-11-15T20:12:50;99845.63;;;14.34;73.46
29417;BME280;28421;51.030;4.006;2022-11-15T20:15:15;99848.81;;;14.24;73.61
29417;BME280;28421;51.030;4.006;2022-11-15T20:17:41;99843.00;;;14.27;73.61
29417;BME280;28421;51.030;4.006;2022-11-15T20:20:06;99847.50;;;14.33;73.71
29417;BME280;28421;51.030;4.006;2022-11-15T20:22:32;99849.16;;;14.34;73.53
29417;BME280;28421;51.030;4.006;2022-11-15T20:24:57;99847.34;;;14.53;72.86
29417;BME280;28421;51.030;4.006;2022-11-15T20:27:23;99848.19;;;14.47;72.78
29417;BME280;28421;51.030;4.006;2022-11-15T20:29:48;99840.00;;;14.35;73.47
29417;BME280;28421;51.030;4.006;2022-11-15T20:32:16;99848.03;;;14.42;73.62
29417;BME280;28421;51.030;4.006;2022-11-15T20:34:41;99835.06;;;14.26;73.86
29417;BME280;28421;51.030;4.006;2022-11-15T20:37:07;99836.16;;;14.43;73.69
29417;BME280;28421;51.030;4.006;2022-11-15T20:39:32;99838.03;;;14.42;73.62
29417;BME280;28421;51.030;4.006;2022-11-15T20:41:58;99836.75;;;14.27;74.43
29417;BME280;28421;51.030;4.006;2022-11-15T20:44:27;99840.00;;;14.35;74.24
29417;BME280;28421;51.030;4.006;2022-11-15T20:46:52;99840.59;;;14.37;74.28
29417;BME280;28421;51.030;4.006;2022-11-15T20:49:17;99840.16;;;14.40;74.09
29417;BME280;28421;51.030;4.006;2022-11-15T20:51:43;99850.91;;;14.22;74.76
29417;BME280;28421;51.030;4.006;2022-11-15T20:54:09;99845.41;;;14.35;74.43
29417;BME280;28421;51.030;4.006;2022-11-15T20:56:35;99844.28;;;14.43;74.22
29417;BME280;28421;51.030;4.006;2022-11-15T20:59:00;99835.16;;;14.44;74.26
29417;BME280;28421;51.030;4.006;2022-11-15T21:01:26;99818.75;;;14.14;75.63
29417;BME280;28421;51.030;4.006;2022-11-15T21:03:53;99817.91;;;14.13;75.93
29417;BME280;28421;51.030;4.006;2022-11-15T21:06:19;99822.88;;;14.16;75.66
29417;BME280;28421;51.030;4.006;2022-11-15T21:08:49;99820.06;;;14.05;76.15
29417;BME280;28421;51.030;4.006;2022-11-15T21:11:33;99816.50;;;14.11;76.10
29417;BME280;28421;51.030;4.006;2022-11-15T21:14:18;99808.31;;;14.17;75.38
29417;BME280;28421;51.030;4.006;2022-11-15T21:16:43;99815.56;;;14.24;75.10
29417;BME280;28421;51.030;4.006;2022-11-15T21:19:10;99824.88;;;14.28;75.05